Pleasantville, Tennessee
Current Conditions -  °F | °C
As of 9:55 AM on Sunday 23 Nov 2014 (Local Time) from KPVE Reporting Station
Overcast Overcast  
Wind Chill: 57°   Ceiling: 1300
Heat Index: 57°   Visibility: 3mi
Dew Point: 54°   Wind: 9mph
Humidity: 88%   Direction: 130°SE
Pressure: 29.72"   Gusts: NA
Location:  35.67°N, 87.7°W
Report Text: KPVE 231555Z AUTO 13008KT 090V160 3SM OVC013 14/12 A2972 RMK
Loading
Personal Weather Stations






























Interactive Weather Map New forecast layout! Learn more

10-Day Weather Forecast

Advertisements
Track Severe Weather on mobile